sensor_id;sensor_type;location;lat;lon;timestamp;P1;durP1;ratioP1;P2;durP2;ratioP2
22160;SDS011;49035;48.812;11.762;2024-02-26T00:02:22;20.53;;;10.60;;
22160;SDS011;49035;48.812;11.762;2024-02-26T00:04:48;19.97;;;9.90;;
22160;SDS011;49035;48.812;11.762;2024-02-26T00:07:15;24.33;;;10.20;;
22160;SDS011;49035;48.812;11.762;2024-02-26T00:09:40;19.00;;;9.10;;
22160;SDS011;49035;48.812;11.762;2024-02-26T00:12:06;24.10;;;10.30;;
22160;SDS011;49035;48.812;11.762;2024-02-26T00:14:32;19.90;;;9.70;;
22160;SDS011;49035;48.812;11.762;2024-02-26T00:16:58;21.30;;;10.77;;
22160;SDS011;49035;48.812;11.762;2024-02-26T00:19:23;20.07;;;9.20;;
22160;SDS011;49035;48.812;11.762;2024-02-26T00:21:49;18.97;;;10.00;;
22160;SDS011;49035;48.812;11.762;2024-02-26T00:24:15;18.50;;;9.97;;
22160;SDS011;49035;48.812;11.762;2024-02-26T00:26:44;18.23;;;9.47;;
22160;SDS011;49035;48.812;11.762;2024-02-26T00:29:09;19.97;;;9.93;;
22160;SDS011;49035;48.812;11.762;2024-02-26T00:31:36;23.23;;;11.13;;
22160;SDS011;49035;48.812;11.762;2024-02-26T00:34:02;27.00;;;11.63;;
22160;SDS011;49035;48.812;11.762;2024-02-26T00:36:27;28.23;;;11.93;;
22160;SDS011;49035;48.812;11.762;2024-02-26T00:38:53;21.37;;;10.87;;
22160;SDS011;49035;48.812;11.762;2024-02-26T00:41:19;24.60;;;11.00;;
22160;SDS011;49035;48.812;11.762;2024-02-26T00:43:48;21.97;;;11.07;;
22160;SDS011;49035;48.812;11.762;2024-02-26T00:46:16;31.10;;;13.53;;
22160;SDS011;49035;48.812;11.762;2024-02-26T00:48:42;23.07;;;11.30;;
22160;SDS011;49035;48.812;11.762;2024-02-26T00:51:08;25.10;;;11.83;;
22160;SDS011;49035;48.812;11.762;2024-02-26T00:53:34;29.20;;;13.27;;
22160;SDS011;49035;48.812;11.762;2024-02-26T00:55:59;28.77;;;13.63;;
22160;SDS011;49035;48.812;11.762;2024-02-26T00:58:25;25.47;;;13.40;;
22160;SDS011;49035;48.812;11.762;2024-02-26T01:00:51;28.87;;;13.60;;
22160;SDS011;49035;48.812;11.762;2024-02-26T01:03:17;24.00;;;12.80;;
22160;SDS011;49035;48.812;11.762;2024-02-26T01:05:43;25.57;;;13.00;;
22160;SDS011;49035;48.812;11.762;2024-02-26T01:08:09;23.83;;;11.87;;
22160;SDS011;49035;48.812;11.762;2024-02-26T01:10:35;25.13;;;11.80;;
22160;SDS011;49035;48.812;11.762;2024-02-26T01:13:00;27.87;;;12.83;;
22160;SDS011;49035;48.812;11.762;2024-02-26T01:15:26;27.13;;;11.67;;
22160;SDS011;49035;48.812;11.762;2024-02-26T01:17:52;27.23;;;11.67;;
22160;SDS011;49035;48.812;11.762;2024-02-26T01:20:18;22.43;;;12.23;;
22160;SDS011;49035;48.812;11.762;2024-02-26T01:22:44;24.87;;;12.33;;
22160;SDS011;49035;48.812;11.762;2024-02-26T01:25:10;28.07;;;12.40;;
22160;SDS011;49035;48.812;11.762;2024-02-26T01:27:36;26.70;;;11.77;;
22160;SDS011;49035;48.812;11.762;2024-02-26T01:30:05;27.67;;;13.67;;
22160;SDS011;49035;48.812;11.762;2024-02-26T01:32:31;29.53;;;14.23;;
22160;SDS011;49035;48.812;11.762;2024-02-26T01:34:57;28.00;;;13.97;;
22160;SDS011;49035;48.812;11.762;2024-02-26T01:37:23;23.07;;;12.63;;
22160;SDS011;49035;48.812;11.762;2024-02-26T01:39:48;27.40;;;13.83;;
22160;SDS011;49035;48.812;11.762;2024-02-26T01:42:14;33.07;;;14.47;;
22160;SDS011;49035;48.812;11.762;2024-02-26T01:44:40;25.07;;;12.73;;
22160;SDS011;49035;48.812;11.762;2024-02-26T01:47:07;27.87;;;13.03;;
22160;SDS011;49035;48.812;11.762;2024-02-26T01:49:35;31.27;;;14.13;;
22160;SDS011;49035;48.812;11.762;2024-02-26T01:52:02;29.30;;;12.23;;
22160;SDS011;49035;48.812;11.762;2024-02-26T01:54:29;27.00;;;13.73;;
22160;SDS011;49035;48.812;11.762;2024-02-26T01:56:56;25.70;;;12.40;;
22160;SDS011;49035;48.812;11.762;2024-02-26T01:59:22;26.77;;;14.37;;
22160;SDS011;49035;48.812;11.762;2024-02-26T02:01:50;30.73;;;13.93;;
22160;SDS011;49035;48.812;11.762;2024-02-26T02:04:20;25.83;;;14.10;;
22160;SDS011;49035;48.812;11.762;2024-02-26T02:06:48;31.87;;;13.53;;
22160;SDS011;49035;48.812;11.762;2024-02-26T02:09:14;28.37;;;13.33;;
22160;SDS011;49035;48.812;11.762;2024-02-26T02:11:39;29.33;;;14.03;;
22160;SDS011;49035;48.812;11.762;2024-02-26T02:14:05;25.60;;;12.87;;
22160;SDS011;49035;48.812;11.762;2024-02-26T02:16:31;29.63;;;14.67;;
22160;SDS011;49035;48.812;11.762;2024-02-26T02:18:57;33.27;;;14.67;;
22160;SDS011;49035;48.812;11.762;2024-02-26T02:21:24;34.70;;;14.43;;
22160;SDS011;49035;48.812;11.762;2024-02-26T02:23:49;30.90;;;13.47;;
22160;SDS011;49035;48.812;11.762;2024-02-26T02:26:15;32.47;;;14.23;;
22160;SDS011;49035;48.812;11.762;2024-02-26T02:28:42;36.77;;;16.30;;
22160;SDS011;49035;48.812;11.762;2024-02-26T02:31:07;43.53;;;17.20;;
22160;SDS011;49035;48.812;11.762;2024-02-26T02:33:34;41.87;;;16.67;;
22160;SDS011;49035;48.812;11.762;2024-02-26T02:36:00;40.70;;;18.40;;
22160;SDS011;49035;48.812;11.762;2024-02-26T02:38:26;39.63;;;17.37;;
22160;SDS011;49035;48.812;11.762;2024-02-26T02:40:54;43.33;;;18.20;;
22160;SDS011;49035;48.812;11.762;2024-02-26T02:43:20;39.23;;;17.67;;
22160;SDS011;49035;48.812;11.762;2024-02-26T02:45:46;34.90;;;14.97;;
22160;SDS011;49035;48.812;11.762;2024-02-26T02:48:11;40.20;;;17.73;;
22160;SDS011;49035;48.812;11.762;2024-02-26T02:50:37;45.00;;;17.00;;
22160;SDS011;49035;48.812;11.762;2024-02-26T02:53:03;41.43;;;20.20;;
22160;SDS011;49035;48.812;11.762;2024-02-26T02:55:29;41.13;;;19.10;;
22160;SDS011;49035;48.812;11.762;2024-02-26T02:57:54;47.00;;;18.57;;
22160;SDS011;49035;48.812;11.762;2024-02-26T03:00:20;42.80;;;18.93;;
22160;SDS011;49035;48.812;11.762;2024-02-26T03:02:48;38.67;;;17.83;;
22160;SDS011;49035;48.812;11.762;2024-02-26T03:05:14;38.20;;;18.60;;
22160;SDS011;49035;48.812;11.762;2024-02-26T03:07:39;40.10;;;19.70;;
22160;SDS011;49035;48.812;11.762;2024-02-26T03:10:05;46.97;;;20.90;;
22160;SDS011;49035;48.812;11.762;2024-02-26T03:12:31;45.43;;;19.93;;
22160;SDS011;49035;48.812;11.762;2024-02-26T03:14:58;43.63;;;20.30;;
22160;SDS011;49035;48.812;11.762;2024-02-26T03:17:26;45.90;;;20.03;;
22160;SDS011;49035;48.812;11.762;2024-02-26T03:19:52;45.30;;;20.00;;
22160;SDS011;49035;48.812;11.762;2024-02-26T03:22:19;44.73;;;19.10;;
22160;SDS011;49035;48.812;11.762;2024-02-26T03:24:45;35.27;;;17.70;;
22160;SDS011;49035;48.812;11.762;2024-02-26T03:27:11;32.37;;;15.37;;
22160;SDS011;49035;48.812;11.762;2024-02-26T03:29:37;51.97;;;19.60;;
22160;SDS011;49035;48.812;11.762;2024-02-26T03:32:03;40.57;;;17.83;;
22160;SDS011;49035;48.812;11.762;2024-02-26T03:34:29;36.60;;;15.53;;
22160;SDS011;49035;48.812;11.762;2024-02-26T03:36:55;40.03;;;16.87;;
22160;SDS011;49035;48.812;11.762;2024-02-26T03:39:22;37.40;;;16.73;;
22160;SDS011;49035;48.812;11.762;2024-02-26T03:41:48;48.63;;;20.33;;
22160;SDS011;49035;48.812;11.762;2024-02-26T03:44:14;52.03;;;21.03;;
22160;SDS011;49035;48.812;11.762;2024-02-26T03:46:40;52.50;;;23.07;;
22160;SDS011;49035;48.812;11.762;2024-02-26T03:49:07;54.47;;;22.00;;
22160;SDS011;49035;48.812;11.762;2024-02-26T03:51:33;57.20;;;23.10;;
22160;SDS011;49035;48.812;11.762;2024-02-26T03:53:59;47.07;;;20.50;;
22160;SDS011;49035;48.812;11.762;2024-02-26T03:56:25;47.13;;;20.67;;
22160;SDS011;49035;48.812;11.762;2024-02-26T03:58:52;45.07;;;19.23;;
22160;SDS011;49035;48.812;11.762;2024-02-26T04:01:17;50.37;;;22.07;;
22160;SDS011;49035;48.812;11.762;2024-02-26T04:03:43;59.27;;;23.80;;
22160;SDS011;49035;48.812;11.762;2024-02-26T04:06:09;53.03;;;23.47;;
22160;SDS011;49035;48.812;11.762;2024-02-26T04:08:36;51.10;;;23.97;;
22160;SDS011;49035;48.812;11.762;2024-02-26T04:11:05;52.63;;;24.13;;
22160;SDS011;49035;48.812;11.762;2024-02-26T04:13:32;55.03;;;23.90;;
22160;SDS011;49035;48.812;11.762;2024-02-26T04:15:58;60.33;;;25.17;;
22160;SDS011;49035;48.812;11.762;2024-02-26T04:18:26;65.50;;;25.80;;
22160;SDS011;49035;48.812;11.762;2024-02-26T04:20:52;61.80;;;26.17;;
22160;SDS011;49035;48.812;11.762;2024-02-26T04:23:18;70.10;;;27.50;;
22160;SDS011;49035;48.812;11.762;2024-02-26T04:25:44;60.93;;;26.73;;
22160;SDS011;49035;48.812;11.762;2024-02-26T04:28:10;61.17;;;26.83;;
22160;SDS011;49035;48.812;11.762;2024-02-26T04:30:36;64.83;;;27.63;;
22160;SDS011;49035;48.812;11.762;2024-02-26T04:33:02;67.93;;;28.63;;
22160;SDS011;49035;48.812;11.762;2024-02-26T04:35:28;67.00;;;28.03;;
22160;SDS011;49035;48.812;11.762;2024-02-26T04:37:53;66.87;;;28.23;;
22160;SDS011;49035;48.812;11.762;2024-02-26T04:40:19;63.90;;;27.77;;
22160;SDS011;49035;48.812;11.762;2024-02-26T04:42:45;68.07;;;28.60;;
22160;SDS011;49035;48.812;11.762;2024-02-26T04:45:10;68.67;;;29.10;;
22160;SDS011;49035;48.812;11.762;2024-02-26T04:47:36;70.23;;;29.37;;
22160;SDS011;49035;48.812;11.762;2024-02-26T04:50:02;72.87;;;29.33;;
22160;SDS011;49035;48.812;11.762;2024-02-26T04:52:27;70.40;;;29.53;;
22160;SDS011;49035;48.812;11.762;2024-02-26T04:54:53;59.37;;;26.17;;
22160;SDS011;49035;48.812;11.762;2024-02-26T04:57:20;62.80;;;28.57;;
22160;SDS011;49035;48.812;11.762;2024-02-26T04:59:47;63.83;;;28.03;;
22160;SDS011;49035;48.812;11.762;2024-02-26T05:02:13;73.50;;;28.67;;
22160;SDS011;49035;48.812;11.762;2024-02-26T05:04:39;68.60;;;29.17;;
22160;SDS011;49035;48.812;11.762;2024-02-26T05:07:04;57.63;;;26.93;;
22160;SDS011;49035;48.812;11.762;2024-02-26T05:09:31;59.00;;;27.30;;
22160;SDS011;49035;48.812;11.762;2024-02-26T05:11:57;63.43;;;27.03;;
22160;SDS011;49035;48.812;11.762;2024-02-26T05:14:23;63.40;;;27.20;;
22160;SDS011;49035;48.812;11.762;2024-02-26T05:16:51;69.37;;;29.77;;
22160;SDS011;49035;48.812;11.762;2024-02-26T05:19:16;73.80;;;29.23;;
22160;SDS011;49035;48.812;11.762;2024-02-26T05:21:42;75.30;;;30.63;;
22160;SDS011;49035;48.812;11.762;2024-02-26T05:24:09;69.17;;;28.97;;
22160;SDS011;49035;48.812;11.762;2024-02-26T05:26:35;65.53;;;28.87;;
22160;SDS011;49035;48.812;11.762;2024-02-26T05:29:01;67.70;;;28.13;;
22160;SDS011;49035;48.812;11.762;2024-02-26T05:31:26;59.17;;;26.27;;
22160;SDS011;49035;48.812;11.762;2024-02-26T05:33:53;58.33;;;26.17;;
22160;SDS011;49035;48.812;11.762;2024-02-26T05:36:20;61.83;;;27.63;;
22160;SDS011;49035;48.812;11.762;2024-02-26T05:38:47;60.53;;;26.73;;
22160;SDS011;49035;48.812;11.762;2024-02-26T05:41:17;56.07;;;26.63;;
22160;SDS011;49035;48.812;11.762;2024-02-26T05:43:51;55.07;;;26.37;;
22160;SDS011;49035;48.812;11.762;2024-02-26T05:46:18;57.40;;;25.70;;
22160;SDS011;49035;48.812;11.762;2024-02-26T05:48:44;48.87;;;25.13;;
22160;SDS011;49035;48.812;11.762;2024-02-26T05:51:12;56.30;;;26.10;;
22160;SDS011;49035;48.812;11.762;2024-02-26T05:53:38;58.97;;;26.60;;
22160;SDS011;49035;48.812;11.762;2024-02-26T05:56:03;55.80;;;25.30;;
22160;SDS011;49035;48.812;11.762;2024-02-26T05:58:29;51.43;;;24.10;;
22160;SDS011;49035;48.812;11.762;2024-02-26T06:00:55;55.30;;;25.20;;
22160;SDS011;49035;48.812;11.762;2024-02-26T06:03:20;56.17;;;27.17;;
22160;SDS011;49035;48.812;11.762;2024-02-26T06:05:46;44.10;;;22.17;;
22160;SDS011;49035;48.812;11.762;2024-02-26T06:08:12;56.00;;;26.73;;
22160;SDS011;49035;48.812;11.762;2024-02-26T06:10:40;48.43;;;23.03;;
22160;SDS011;49035;48.812;11.762;2024-02-26T06:13:06;51.53;;;25.13;;
22160;SDS011;49035;48.812;11.762;2024-02-26T06:15:31;52.77;;;23.40;;
22160;SDS011;49035;48.812;11.762;2024-02-26T06:17:57;47.97;;;23.17;;
22160;SDS011;49035;48.812;11.762;2024-02-26T06:20:23;52.50;;;23.23;;
22160;SDS011;49035;48.812;11.762;2024-02-26T06:22:48;47.53;;;23.83;;
22160;SDS011;49035;48.812;11.762;2024-02-26T06:25:14;45.13;;;22.27;;
22160;SDS011;49035;48.812;11.762;2024-02-26T06:27:40;46.00;;;21.90;;
22160;SDS011;49035;48.812;11.762;2024-02-26T06:30:06;44.17;;;22.23;;
22160;SDS011;49035;48.812;11.762;2024-02-26T06:32:33;49.60;;;23.30;;
22160;SDS011;49035;48.812;11.762;2024-02-26T06:34:59;53.57;;;25.17;;
22160;SDS011;49035;48.812;11.762;2024-02-26T06:37:24;51.60;;;24.93;;
22160;SDS011;49035;48.812;11.762;2024-02-26T06:39:50;50.80;;;22.87;;
22160;SDS011;49035;48.812;11.762;2024-02-26T06:42:17;53.80;;;23.20;;
22160;SDS011;49035;48.812;11.762;2024-02-26T06:44:42;54.17;;;24.23;;
22160;SDS011;49035;48.812;11.762;2024-02-26T06:47:08;57.17;;;24.77;;
22160;SDS011;49035;48.812;11.762;2024-02-26T06:49:34;64.00;;;25.20;;
22160;SDS011;49035;48.812;11.762;2024-02-26T06:51:59;59.37;;;27.03;;
22160;SDS011;49035;48.812;11.762;2024-02-26T06:54:25;55.80;;;24.33;;
22160;SDS011;49035;48.812;11.762;2024-02-26T06:56:51;57.03;;;23.97;;
22160;SDS011;49035;48.812;11.762;2024-02-26T06:59:16;59.40;;;25.17;;
22160;SDS011;49035;48.812;11.762;2024-02-26T07:01:42;52.73;;;25.10;;
22160;SDS011;49035;48.812;11.762;2024-02-26T07:04:08;45.93;;;23.93;;
22160;SDS011;49035;48.812;11.762;2024-02-26T07:06:36;54.33;;;23.73;;
22160;SDS011;49035;48.812;11.762;2024-02-26T07:09:02;48.97;;;22.83;;
22160;SDS011;49035;48.812;11.762;2024-02-26T07:11:27;46.63;;;22.77;;
22160;SDS011;49035;48.812;11.762;2024-02-26T07:13:53;44.10;;;21.70;;
22160;SDS011;49035;48.812;11.762;2024-02-26T07:16:19;46.77;;;22.57;;
22160;SDS011;49035;48.812;11.762;2024-02-26T07:18:45;41.63;;;21.53;;
22160;SDS011;49035;48.812;11.762;2024-02-26T07:21:11;42.97;;;21.80;;
22160;SDS011;49035;48.812;11.762;2024-02-26T07:23:37;48.53;;;22.37;;
22160;SDS011;49035;48.812;11.762;2024-02-26T07:26:03;52.43;;;23.23;;
22160;SDS011;49035;48.812;11.762;2024-02-26T07:28:28;50.67;;;24.80;;
22160;SDS011;49035;48.812;11.762;2024-02-26T07:30:54;52.23;;;24.20;;
22160;SDS011;49035;48.812;11.762;2024-02-26T07:33:20;50.73;;;24.27;;
22160;SDS011;49035;48.812;11.762;2024-02-26T07:35:46;56.17;;;25.53;;
22160;SDS011;49035;48.812;11.762;2024-02-26T07:38:11;43.37;;;22.77;;
22160;SDS011;49035;48.812;11.762;2024-02-26T07:40:38;51.10;;;23.67;;
22160;SDS011;49035;48.812;11.762;2024-02-26T07:43:04;47.20;;;23.80;;
22160;SDS011;49035;48.812;11.762;2024-02-26T07:45:29;42.60;;;22.10;;
22160;SDS011;49035;48.812;11.762;2024-02-26T07:47:55;42.53;;;21.83;;
22160;SDS011;49035;48.812;11.762;2024-02-26T07:50:21;42.47;;;21.93;;
22160;SDS011;49035;48.812;11.762;2024-02-26T07:52:47;34.33;;;18.43;;
22160;SDS011;49035;48.812;11.762;2024-02-26T07:55:12;28.20;;;17.07;;
22160;SDS011;49035;48.812;11.762;2024-02-26T07:57:41;26.80;;;15.47;;
22160;SDS011;49035;48.812;11.762;2024-02-26T08:00:07;24.47;;;13.70;;
22160;SDS011;49035;48.812;11.762;2024-02-26T08:02:34;22.77;;;13.10;;
22160;SDS011;49035;48.812;11.762;2024-02-26T08:05:00;21.93;;;12.50;;
22160;SDS011;49035;48.812;11.762;2024-02-26T08:07:26;20.10;;;12.13;;
22160;SDS011;49035;48.812;11.762;2024-02-26T08:09:52;19.57;;;11.53;;
22160;SDS011;49035;48.812;11.762;2024-02-26T08:12:17;17.67;;;11.17;;
22160;SDS011;49035;48.812;11.762;2024-02-26T08:14:43;20.23;;;10.70;;
22160;SDS011;49035;48.812;11.762;2024-02-26T08:17:09;15.90;;;10.70;;
22160;SDS011;49035;48.812;11.762;2024-02-26T08:19:35;18.30;;;10.17;;
22160;SDS011;49035;48.812;11.762;2024-02-26T08:22:01;18.07;;;10.80;;
22160;SDS011;49035;48.812;11.762;2024-02-26T08:24:27;19.63;;;11.00;;
22160;SDS011;49035;48.812;11.762;2024-02-26T08:26:53;19.07;;;9.93;;
22160;SDS011;49035;48.812;11.762;2024-02-26T08:29:19;14.87;;;10.80;;
22160;SDS011;49035;48.812;11.762;2024-02-26T08:31:44;15.97;;;10.13;;
22160;SDS011;49035;48.812;11.762;2024-02-26T08:34:10;15.77;;;10.00;;
22160;SDS011;49035;48.812;11.762;2024-02-26T08:36:35;16.83;;;9.80;;
22160;SDS011;49035;48.812;11.762;2024-02-26T08:39:01;15.40;;;9.70;;
22160;SDS011;49035;48.812;11.762;2024-02-26T08:41:27;19.70;;;10.20;;
22160;SDS011;49035;48.812;11.762;2024-02-26T08:43:53;17.43;;;10.10;;
22160;SDS011;49035;48.812;11.762;2024-02-26T08:46:19;15.30;;;9.90;;
22160;SDS011;49035;48.812;11.762;2024-02-26T08:48:45;16.30;;;9.90;;
22160;SDS011;49035;48.812;11.762;2024-02-26T08:51:11;15.17;;;9.27;;
22160;SDS011;49035;48.812;11.762;2024-02-26T08:53:38;13.97;;;9.27;;
22160;SDS011;49035;48.812;11.762;2024-02-26T08:56:04;14.77;;;8.05;;
22160;SDS011;49035;48.812;11.762;2024-02-26T08:58:30;15.43;;;8.68;;
22160;SDS011;49035;48.812;11.762;2024-02-26T09:00:55;17.43;;;9.07;;
22160;SDS011;49035;48.812;11.762;2024-02-26T09:03:21;15.33;;;7.90;;
22160;SDS011;49035;48.812;11.762;2024-02-26T09:05:47;12.07;;;8.10;;
22160;SDS011;49035;48.812;11.762;2024-02-26T09:08:13;14.80;;;8.07;;
22160;SDS011;49035;48.812;11.762;2024-02-26T09:10:39;12.83;;;8.30;;
22160;SDS011;49035;48.812;11.762;2024-02-26T09:13:05;10.93;;;7.47;;
22160;SDS011;49035;48.812;11.762;2024-02-26T09:15:31;13.57;;;8.57;;
22160;SDS011;49035;48.812;11.762;2024-02-26T09:17:57;15.10;;;8.13;;
22160;SDS011;49035;48.812;11.762;2024-02-26T09:20:22;12.33;;;8.67;;
22160;SDS011;49035;48.812;11.762;2024-02-26T09:22:49;15.23;;;8.87;;
22160;SDS011;49035;48.812;11.762;2024-02-26T09:25:15;13.10;;;8.30;;
22160;SDS011;49035;48.812;11.762;2024-02-26T09:27:42;11.60;;;7.70;;
22160;SDS011;49035;48.812;11.762;2024-02-26T09:30:11;14.40;;;8.23;;
22160;SDS011;49035;48.812;11.762;2024-02-26T09:32:37;14.60;;;8.33;;
22160;SDS011;49035;48.812;11.762;2024-02-26T09:35:04;13.60;;;8.88;;
22160;SDS011;49035;48.812;11.762;2024-02-26T09:37:30;12.35;;;7.55;;
22160;SDS011;49035;48.812;11.762;2024-02-26T09:39:56;11.52;;;7.97;;
22160;SDS011;49035;48.812;11.762;2024-02-26T09:42:21;14.18;;;7.78;;
22160;SDS011;49035;48.812;11.762;2024-02-26T09:44:51;12.57;;;7.72;;
22160;SDS011;49035;48.812;11.762;2024-02-26T09:47:23;13.00;;;7.10;;
22160;SDS011;49035;48.812;11.762;2024-02-26T09:49:52;11.10;;;7.13;;
22160;SDS011;49035;48.812;11.762;2024-02-26T09:52:20;14.45;;;8.07;;
22160;SDS011;49035;48.812;11.762;2024-02-26T09:54:49;10.48;;;7.57;;
22160;SDS011;49035;48.812;11.762;2024-02-26T09:57:15;9.43;;;6.63;;
22160;SDS011;49035;48.812;11.762;2024-02-26T09:59:42;10.73;;;6.70;;
22160;SDS011;49035;48.812;11.762;2024-02-26T10:02:12;12.75;;;6.78;;
22160;SDS011;49035;48.812;11.762;2024-02-26T10:04:39;8.40;;;5.72;;
22160;SDS011;49035;48.812;11.762;2024-02-26T10:07:07;8.57;;;5.82;;
22160;SDS011;49035;48.812;11.762;2024-02-26T10:09:36;10.05;;;5.80;;
22160;SDS011;49035;48.812;11.762;2024-02-26T10:12:03;13.55;;;5.88;;
22160;SDS011;49035;48.812;11.762;2024-02-26T10:14:29;9.00;;;5.70;;
22160;SDS011;49035;48.812;11.762;2024-02-26T10:16:55;10.20;;;6.20;;
22160;SDS011;49035;48.812;11.762;2024-02-26T10:19:30;9.18;;;5.63;;
22160;SDS011;49035;48.812;11.762;2024-02-26T10:21:56;8.52;;;5.45;;
22160;SDS011;49035;48.812;11.762;2024-02-26T10:24:23;8.60;;;5.20;;
22160;SDS011;49035;48.812;11.762;2024-02-26T10:26:53;9.05;;;5.60;;
22160;SDS011;49035;48.812;11.762;2024-02-26T10:29:20;7.25;;;5.28;;
22160;SDS011;49035;48.812;11.762;2024-02-26T10:31:46;8.05;;;5.47;;
22160;SDS011;49035;48.812;11.762;2024-02-26T10:34:12;6.80;;;4.95;;
22160;SDS011;49035;48.812;11.762;2024-02-26T10:36:38;8.93;;;5.40;;
22160;SDS011;49035;48.812;11.762;2024-02-26T10:39:06;8.73;;;5.63;;
22160;SDS011;49035;48.812;11.762;2024-02-26T10:41:35;7.60;;;5.10;;
22160;SDS011;49035;48.812;11.762;2024-02-26T10:44:01;6.32;;;4.95;;
22160;SDS011;49035;48.812;11.762;2024-02-26T10:46:26;7.85;;;5.13;;
22160;SDS011;49035;48.812;11.762;2024-02-26T10:48:53;7.93;;;5.38;;
22160;SDS011;49035;48.812;11.762;2024-02-26T10:51:28;10.88;;;5.03;;
22160;SDS011;49035;48.812;11.762;2024-02-26T10:53:56;6.40;;;4.90;;
22160;SDS011;49035;48.812;11.762;2024-02-26T10:56:27;6.97;;;5.45;;
22160;SDS011;49035;48.812;11.762;2024-02-26T10:58:57;6.40;;;4.40;;
22160;SDS011;49035;48.812;11.762;2024-02-26T11:01:23;6.43;;;4.55;;
22160;SDS011;49035;48.812;11.762;2024-02-26T11:03:54;7.32;;;4.75;;
22160;SDS011;49035;48.812;11.762;2024-02-26T11:06:21;6.75;;;4.50;;
22160;SDS011;49035;48.812;11.762;2024-02-26T11:08:48;6.78;;;4.45;;
22160;SDS011;49035;48.812;11.762;2024-02-26T11:11:15;11.63;;;6.72;;
22160;SDS011;49035;48.812;11.762;2024-02-26T11:13:42;12.55;;;6.88;;
22160;SDS011;49035;48.812;11.762;2024-02-26T11:16:19;7.05;;;4.63;;
22160;SDS011;49035;48.812;11.762;2024-02-26T11:18:47;6.30;;;4.50;;
22160;SDS011;49035;48.812;11.762;2024-02-26T11:21:16;5.57;;;4.22;;
22160;SDS011;49035;48.812;11.762;2024-02-26T11:23:45;5.65;;;4.70;;
22160;SDS011;49035;48.812;11.762;2024-02-26T11:26:11;6.47;;;4.65;;
22160;SDS011;49035;48.812;11.762;2024-02-26T11:28:39;7.72;;;5.07;;
22160;SDS011;49035;48.812;11.762;2024-02-26T11:31:06;6.07;;;4.65;;
22160;SDS011;49035;48.812;11.762;2024-02-26T11:33:33;6.43;;;4.60;;
22160;SDS011;49035;48.812;11.762;2024-02-26T11:36:01;5.78;;;4.32;;
22160;SDS011;49035;48.812;11.762;2024-02-26T11:38:28;6.80;;;4.68;;
22160;SDS011;49035;48.812;11.762;2024-02-26T11:40:54;10.25;;;4.32;;
22160;SDS011;49035;48.812;11.762;2024-02-26T11:43:23;7.40;;;4.18;;
22160;SDS011;49035;48.812;11.762;2024-02-26T11:46:24;9.40;;;4.18;;
22160;SDS011;49035;48.812;11.762;2024-02-26T11:51:55;6.93;;;4.10;;
22160;SDS011;49035;48.812;11.762;2024-02-26T11:57:22;6.07;;;4.13;;
22160;SDS011;49035;48.812;11.762;2024-02-26T12:00:13;4.38;;;3.40;;
22160;SDS011;49035;48.812;11.762;2024-02-26T12:05:19;6.95;;;4.20;;
22160;SDS011;49035;48.812;11.762;2024-02-26T12:08:09;6.35;;;3.88;;
22160;SDS011;49035;48.812;11.762;2024-02-26T12:10:36;11.60;;;4.20;;
22160;SDS011;49035;48.812;11.762;2024-02-26T12:13:11;7.78;;;3.92;;
22160;SDS011;49035;48.812;11.762;2024-02-26T12:15:42;4.53;;;3.65;;
22160;SDS011;49035;48.812;11.762;2024-02-26T12:18:16;4.97;;;3.47;;
22160;SDS011;49035;48.812;11.762;2024-02-26T12:20:42;4.80;;;3.70;;
22160;SDS011;49035;48.812;11.762;2024-02-26T12:23:15;4.70;;;3.13;;
22160;SDS011;49035;48.812;11.762;2024-02-26T12:25:42;9.82;;;4.35;;
22160;SDS011;49035;48.812;11.762;2024-02-26T12:28:09;5.53;;;3.33;;
22160;SDS011;49035;48.812;11.762;2024-02-26T12:30:35;5.28;;;3.67;;
22160;SDS011;49035;48.812;11.762;2024-02-26T12:33:00;4.68;;;3.25;;
22160;SDS011;49035;48.812;11.762;2024-02-26T12:35:28;4.13;;;3.00;;
22160;SDS011;49035;48.812;11.762;2024-02-26T12:37:56;5.68;;;2.90;;
22160;SDS011;49035;48.812;11.762;2024-02-26T12:40:22;4.03;;;3.05;;
22160;SDS011;49035;48.812;11.762;2024-02-26T12:42:47;3.97;;;2.60;;
22160;SDS011;49035;48.812;11.762;2024-02-26T12:45:14;4.18;;;2.92;;
22160;SDS011;49035;48.812;11.762;2024-02-26T12:47:43;4.70;;;2.88;;
22160;SDS011;49035;48.812;11.762;2024-02-26T12:50:14;5.63;;;2.78;;
22160;SDS011;49035;48.812;11.762;2024-02-26T12:52:43;3.78;;;2.88;;
22160;SDS011;49035;48.812;11.762;2024-02-26T12:55:11;4.18;;;2.78;;
22160;SDS011;49035;48.812;11.762;2024-02-26T12:57:40;4.45;;;2.75;;
22160;SDS011;49035;48.812;11.762;2024-02-26T13:00:08;2.50;;;2.30;;
22160;SDS011;49035;48.812;11.762;2024-02-26T13:02:37;3.63;;;2.08;;
22160;SDS011;49035;48.812;11.762;2024-02-26T13:05:05;4.55;;;2.42;;
22160;SDS011;49035;48.812;11.762;2024-02-26T13:07:32;3.42;;;2.28;;
22160;SDS011;49035;48.812;11.762;2024-02-26T13:09:59;6.05;;;2.38;;
22160;SDS011;49035;48.812;11.762;2024-02-26T13:12:25;3.20;;;2.50;;
22160;SDS011;49035;48.812;11.762;2024-02-26T13:15:00;4.25;;;2.10;;
22160;SDS011;49035;48.812;11.762;2024-02-26T13:17:27;7.10;;;2.72;;
22160;SDS011;49035;48.812;11.762;2024-02-26T13:19:56;3.40;;;2.40;;
22160;SDS011;49035;48.812;11.762;2024-02-26T13:22:21;2.95;;;1.95;;
22160;SDS011;49035;48.812;11.762;2024-02-26T13:24:54;3.53;;;2.40;;
22160;SDS011;49035;48.812;11.762;2024-02-26T13:27:21;2.22;;;2.03;;
22160;SDS011;49035;48.812;11.762;2024-02-26T13:30:10;2.90;;;2.00;;
22160;SDS011;49035;48.812;11.762;2024-02-26T13:32:37;3.17;;;1.90;;
22160;SDS011;49035;48.812;11.762;2024-02-26T13:35:05;2.53;;;1.75;;
22160;SDS011;49035;48.812;11.762;2024-02-26T13:37:32;3.20;;;2.10;;
22160;SDS011;49035;48.812;11.762;2024-02-26T13:39:58;3.10;;;2.25;;
22160;SDS011;49035;48.812;11.762;2024-02-26T13:42:24;2.38;;;1.77;;
22160;SDS011;49035;48.812;11.762;2024-02-26T13:44:50;3.13;;;2.20;;
22160;SDS011;49035;48.812;11.762;2024-02-26T13:47:15;2.42;;;2.20;;
22160;SDS011;49035;48.812;11.762;2024-02-26T13:49:41;4.70;;;2.00;;
22160;SDS011;49035;48.812;11.762;2024-02-26T13:52:07;3.88;;;2.50;;
22160;SDS011;49035;48.812;11.762;2024-02-26T13:54:32;3.28;;;2.97;;
22160;SDS011;49035;48.812;11.762;2024-02-26T13:56:59;2.88;;;2.10;;
22160;SDS011;49035;48.812;11.762;2024-02-26T13:59:24;4.40;;;2.28;;
22160;SDS011;49035;48.812;11.762;2024-02-26T14:01:50;4.13;;;2.13;;
22160;SDS011;49035;48.812;11.762;2024-02-26T14:04:18;3.13;;;2.30;;
22160;SDS011;49035;48.812;11.762;2024-02-26T14:06:43;3.65;;;2.30;;
22160;SDS011;49035;48.812;11.762;2024-02-26T14:09:09;2.92;;;2.05;;
22160;SDS011;49035;48.812;11.762;2024-02-26T14:11:35;4.00;;;2.13;;
22160;SDS011;49035;48.812;11.762;2024-02-26T14:14:01;2.30;;;2.10;;
22160;SDS011;49035;48.812;11.762;2024-02-26T14:16:27;2.70;;;2.10;;
22160;SDS011;49035;48.812;11.762;2024-02-26T14:18:52;3.92;;;2.30;;
22160;SDS011;49035;48.812;11.762;2024-02-26T14:21:18;2.22;;;1.90;;
22160;SDS011;49035;48.812;11.762;2024-02-26T14:23:43;2.42;;;1.90;;
22160;SDS011;49035;48.812;11.762;2024-02-26T14:26:09;3.20;;;2.17;;